NCAR-RAP Real-Time Weather Data

Output produced by METARs form (10 April 2020  07:30 UTC)
found at http://weather.rap.ucar.edu/surface/
 
KMKE 100652Z 30011G18KT 10SM CLR 02/M06 A2992 RMK AO2 SLP136 T00221061
KMKE 100552Z 30012KT 10SM CLR 02/M06 A2991 RMK AO2 SLP132 60000 T00221061 10039 20022 400830022 53015
KMKE 100452Z 30011G19KT 10SM CLR 03/M07 A2988 RMK AO2 SLP124 T00281067
KMKE 100352Z 30012G19KT 10SM CLR 03/M06 A2987 RMK AO2 SLP119 T00281056
KMKE 100252Z 30012G22KT 10SM CLR 03/M06 A2986 RMK AO2 SLP117 60000 T00331056 53026
KMKE 100152Z 31013G21KT 10SM FEW080 04/M07 A2984 RMK AO2 SLP108 T00391067
KMKE 100052Z 29009KT 10SM FEW070 03/M04 A2980 RMK AO2 SNE00 SLP098 P0000 T00331039
KMKE 092352Z 33017G31KT 10SM -SN BKN049 04/M04 A2978 RMK AO2 PK WND 34031/2347 SNB51 SLP091 P0000 60000 T00391044 10083 20033 53022
KMKE 092252Z 31018G27KT 10SM FEW038 FEW070 06/M07 A2975 RMK AO2 PK WND 32031/2220 SNE2153 SLP080 P0000 T00611067
KMKE 092152Z 32011G35KT 6SM -SN FEW038 SCT050 BKN075 04/M03 A2973 RMK AO2 PK WND 31035/2146 SNB48 SLP072 VIS SE 2 P0000 T00441033
KMKE 092052Z 28012G24KT 10SM FEW029 FEW065 FEW085 SCT250 07/M07 A2972 RMK AO2 PK WND 31037/2020 RAB23E32 SLP067 P0000 60000 T00671067 53003
KMKE 091952Z 32019G30KT 10SM SCT070 BKN090 07/M08 A2971 RMK AO2 PK WND 29032/1937 SLP065 T00721078
KMKE 091852Z 32018G29KT 10SM FEW033 SCT050 BKN090 07/M06 A2971 RMK AO2 PK WND 30040/1819 SLP064 SNB22E32 P0000 T00671061
KMKE 091752Z 33017G23KT 10SM SCT055 BKN070 BKN080 07/M07 A2971 RMK AO2 PK WND 31045/1739 SNB36E45 SLP063 P0000 60000 T00671072 10072 20039 55002
KMKE 091652Z 30016G31KT 9SM BKN049 BKN065 06/M06 A2970 RMK AO2 PK WND 30032/1635 SNB46E51 SLP063 P0000 T00611061
KMKE 091552Z 29015G27KT 10SM SCT047 BKN065 06/M06 A2971 RMK AO2 PK WND 28030/1529 SLP065 T00611061
KMKE 091452Z 31019G28KT 10SM BKN044 06/M06 A2971 RMK AO2 PK WND 31033/1400 SLP065 T00561056 58003
KMKE 091352Z 30017G27KT 10SM FEW025 05/M06 A2972 RMK AO2 PK WND 30031/1308 SLP070 T00501056
KMKE 091252Z 29017G32KT 10SM CLR 04/M06 A2974 RMK AO2 PK WND 29032/1218 SLP076 T00391061
KMKE 091152Z 29014G26KT 10SM CLR 04/M05 A2972 RMK AO2 PK WND 30029/1137 SLP069 70026 T00391050 10083 20039 53008
KMKE 091052Z 30014G24KT 10SM CLR 04/M04 A2969 RMK AO2 PK WND 29029/1000 SLP059 T00441044
KMKE 090952Z 29016G24KT 10SM CLR 05/M04 A2970 RMK AO2 PK WND 30030/0937 SLP061 T00501044
KMKE 090852Z 30016G25KT 10SM CLR 06/M05 A2970 RMK AO2 PK WND 29026/0828 SLP060 T00611050 53014